Time;durP1;ratioP1;P1;durP2;ratioP2;P2;SDS_P1;SDS_P2;PMS_P1;PMS_P2;Temp;Humidity;BMP_temperature;BMP_pressure;BME280_temperature;BME280_humidity;BME280_pressure;Samples;Min_cycle;Max_cycle;Signal;HPM_P1;HPM_P2
2021/10/30 00:00:30;;;;;;;51.08;25.42;;;;;;;8.90;95.09;98092.56;5054647;28;20211;-88
2021/10/30 00:02:55;;;;;;;42.22;23.88;;;;;;;8.86;94.97;98090.03;5067858;28;20020;-88
2021/10/30 00:05:21;;;;;;;41.80;23.75;;;;;;;8.76;96.01;98079.72;5068171;28;20044;-88
2021/10/30 00:07:46;;;;;;;43.53;23.83;;;;;;;8.72;96.16;98075.44;5068157;28;20017;-88
2021/10/30 00:10:14;;;;;;;52.33;25.45;;;;;;;8.67;97.15;98077.28;5082303;28;20213;-88
2021/10/30 00:12:41;;;;;;;46.47;21.58;;;;;;;8.58;96.47;98077.47;5062585;28;20123;-88
2021/10/30 00:15:07;;;;;;;45.47;24.02;;;;;;;8.47;96.85;98068.97;5068259;28;21112;-88
2021/10/30 00:17:33;;;;;;;48.75;24.77;;;;;;;8.47;97.39;98068.97;5065405;28;20051;-88
2021/10/30 00:19:58;;;;;;;46.63;23.85;;;;;;;8.42;97.47;98070.78;5065873;28;20024;-88
2021/10/30 00:22:24;;;;;;;42.78;21.52;;;;;;;8.31;96.26;98064.03;5068329;28;20278;-88
2021/10/30 00:24:50;;;;;;;40.35;22.42;;;;;;;8.28;96.80;98066.72;5085584;28;20032;-88
2021/10/30 00:27:15;;;;;;;40.15;21.17;;;;;;;8.17;96.85;98059.03;5068219;28;20029;-88
2021/10/30 00:29:41;;;;;;;38.28;21.48;;;;;;;8.03;96.50;98047.94;5067667;28;20316;-88
2021/10/30 00:32:07;;;;;;;38.85;19.98;;;;;;;7.89;96.40;98042.09;5051307;28;20024;-88
2021/10/30 00:34:33;;;;;;;46.55;22.42;;;;;;;7.80;97.12;98055.38;5084698;28;20080;-88
2021/10/30 00:36:59;;;;;;;41.65;21.83;;;;;;;7.85;96.92;98050.03;5065845;28;20091;-88
2021/10/30 00:39:24;;;;;;;39.17;22.48;;;;;;;7.78;97.54;98058.91;5059145;28;20308;-88
2021/10/30 00:41:52;;;;;;;42.03;20.95;;;;;;;7.61;96.63;98061.81;5085525;28;20024;-88
2021/10/30 00:44:20;;;;;;;45.33;22.90;;;;;;;7.49;97.62;98043.69;5067525;28;20319;-88
2021/10/30 00:46:49;;;;;;;42.75;22.58;;;;;;;7.46;97.43;98059.44;5067713;28;20024;-88
2021/10/30 00:49:17;;;;;;;39.03;20.67;;;;;;;7.41;97.15;98061.28;5067067;28;20020;-88
2021/10/30 00:51:47;;;;;;;40.40;20.75;;;;;;;7.36;97.29;98039.53;5066781;28;20103;-88
2021/10/30 00:54:14;;;;;;;35.50;19.48;;;;;;;7.34;97.29;98046.53;5067804;28;20020;-88
2021/10/30 00:56:42;;;;;;;43.28;22.40;;;;;;;7.21;97.40;98052.00;5068770;28;20389;-88
2021/10/30 00:59:12;;;;;;;37.22;19.67;;;;;;;7.12;97.49;98049.53;5060448;28;20032;-88
2021/10/30 01:01:43;;;;;;;40.55;22.00;;;;;;;7.01;97.58;98054.91;5063815;28;20025;-88
2021/10/30 01:04:08;;;;;;;40.10;19.70;;;;;;;7.01;97.47;98049.69;5053866;28;20052;-88
2021/10/30 01:06:36;;;;;;;39.25;19.52;;;;;;;6.95;97.33;98047.16;5085778;28;20056;-88
2021/10/30 01:09:03;;;;;;;42.60;19.55;;;;;;;6.83;97.46;98046.47;5068188;28;20047;-88
2021/10/30 01:11:28;;;;;;;43.60;21.77;;;;;;;6.88;99.47;98042.91;5068233;28;20043;-88
2021/10/30 01:13:54;;;;;;;45.83;20.98;;;;;;;6.86;99.56;98044.66;5068006;28;20316;-88
2021/10/30 01:16:21;;;;;;;46.08;21.63;;;;;;;6.88;99.57;98045.50;5062809;28;20024;-88
2021/10/30 01:18:47;;;;;;;44.03;20.85;;;;;;;6.84;98.69;98059.53;5070030;28;20020;-88
2021/10/30 01:21:13;;;;;;;45.55;20.67;;;;;;;6.76;98.84;98050.91;5092988;28;20224;-88
2021/10/30 01:23:39;;;;;;;42.70;21.73;;;;;;;6.61;98.65;98045.88;5068195;28;20054;-88
2021/10/30 01:26:05;;;;;;;39.47;20.10;;;;;;;6.59;98.91;98042.44;5076645;28;20028;-88
2021/10/30 01:28:34;;;;;;;42.05;20.98;;;;;;;6.52;98.90;98035.56;5063407;28;20252;-88
2021/10/30 01:31:00;;;;;;;37.92;20.02;;;;;;;6.48;99.08;98028.63;5052862;28;20021;-88
2021/10/30 01:33:26;;;;;;;39.22;20.95;;;;;;;6.54;99.47;98028.53;5062443;28;20020;-88
2021/10/30 01:35:51;;;;;;;31.42;17.23;;;;;;;6.44;98.57;98021.72;5067203;28;20012;-88
2021/10/30 01:38:17;;;;;;;46.58;19.92;;;;;;;6.46;98.69;98027.78;5067661;28;20320;-88
2021/10/30 01:40:49;;;;;;;38.47;19.33;;;;;;;6.47;99.23;98024.28;5067420;28;20017;-88
2021/10/30 01:43:15;;;;;;;36.47;18.70;;;;;;;6.43;98.31;98004.31;5058323;28;20231;-88
2021/10/30 01:45:43;;;;;;;37.00;20.02;;;;;;;6.45;98.83;98000.78;5065389;28;20074;-88
2021/10/30 01:48:08;;;;;;;42.78;19.65;;;;;;;6.60;99.79;97999.72;5061281;28;20028;-88
2021/10/30 01:50:34;;;;;;;32.78;18.38;;;;;;;6.56;98.29;97998.03;5067372;28;20320;-88
2021/10/30 01:53:03;;;;;;;41.75;20.33;;;;;;;6.33;97.48;97993.09;5066861;28;20338;-88
2021/10/30 01:55:32;;;;;;;37.85;19.02;;;;;;;6.33;98.38;97998.31;5085059;28;20017;-88
2021/10/30 01:57:58;;;;;;;40.55;19.33;;;;;;;6.35;98.72;97995.69;5067603;28;20055;-88
2021/10/30 02:00:24;;;;;;;37.70;19.45;;;;;;;6.38;98.51;97993.03;5067222;28;20020;-88
2021/10/30 02:02:50;;;;;;;37.05;19.25;;;;;;;6.31;98.15;97989.66;5066904;28;20095;-88
2021/10/30 02:05:15;;;;;;;37.75;19.45;;;;;;;6.27;98.61;97981.88;5066040;28;20228;-88
2021/10/30 02:07:41;;;;;;;35.38;19.00;;;;;;;6.32;98.38;97985.28;5083381;28;20028;-88
2021/10/30 02:10:09;;;;;;;33.53;18.38;;;;;;;6.20;99.00;97981.06;5082686;28;20035;-88
2021/10/30 02:12:34;;;;;;;37.42;21.02;;;;;;;6.18;98.66;97966.31;5067541;28;20020;-88
2021/10/30 02:15:00;;;;;;;38.42;19.55;;;;;;;6.24;98.80;97992.38;5065647;28;20091;-88
2021/10/30 02:17:26;;;;;;;52.40;22.60;;;;;;;6.15;98.69;97971.56;5066880;28;20016;-88
2021/10/30 02:19:51;;;;;;;41.28;18.52;;;;;;;6.12;98.46;97961.16;5058707;28;20315;-88
2021/10/30 02:22:17;;;;;;;44.00;19.70;;;;;;;6.14;98.64;97964.63;5066979;28;20320;-88
2021/10/30 02:24:42;;;;;;;33.67;18.58;;;;;;;6.02;98.17;97962.16;5066997;28;20024;-89
2021/10/30 02:27:08;;;;;;;34.97;17.98;;;;;;;6.06;98.13;97964.72;5066615;28;20055;-89
2021/10/30 02:29:33;;;;;;;41.22;17.95;;;;;;;5.92;98.10;97952.72;5065420;28;20020;-89
2021/10/30 02:32:01;;;;;;;39.50;18.30;;;;;;;5.97;98.24;97943.94;5066193;28;20048;-89
2021/10/30 02:34:27;;;;;;;39.42;20.17;;;;;;;5.89;99.00;97931.84;5066691;28;20023;-89
2021/10/30 02:36:52;;;;;;;43.03;19.88;;;;;;;5.99;99.59;97936.06;5066154;28;20052;-89
2021/10/30 02:39:18;;;;;;;43.25;18.67;;;;;;;6.00;99.16;97935.19;5065147;28;20024;-89
2021/10/30 02:41:43;;;;;;;32.90;17.98;;;;;;;5.93;98.95;97923.97;5047674;28;20346;-89
2021/10/30 02:44:08;;;;;;;36.83;18.17;;;;;;;5.97;99.10;97923.03;5066339;28;20032;-89
2021/10/30 02:46:35;;;;;;;33.42;17.35;;;;;;;5.97;99.15;97917.81;5066453;28;20052;-89
2021/10/30 02:49:01;;;;;;;33.78;17.73;;;;;;;6.07;98.72;97921.16;5066070;28;20024;-89
2021/10/30 02:51:26;;;;;;;35.42;18.17;;;;;;;6.00;98.56;97914.28;5066717;28;20047;-89
2021/10/30 02:53:52;;;;;;;37.55;17.80;;;;;;;6.00;98.50;97916.91;5066390;28;20197;-89
2021/10/30 02:56:17;;;;;;;33.72;15.90;;;;;;;6.05;98.41;97907.28;5066340;28;20025;-89
2021/10/30 02:58:43;;;;;;;37.47;17.73;;;;;;;5.96;98.26;97899.56;5064950;28;20024;-89
2021/10/30 03:01:08;;;;;;;33.00;16.80;;;;;;;6.07;98.75;97897.66;5049544;28;20091;-89
2021/10/30 03:03:34;;;;;;;40.58;17.48;;;;;;;6.05;98.54;97896.81;5045824;28;20029;-89
2021/10/30 03:05:59;;;;;;;30.83;17.77;;;;;;;6.11;98.92;97886.28;5062534;28;20079;-89
2021/10/30 03:08:25;;;;;;;33.10;16.85;;;;;;;6.02;99.05;97882.03;5066253;28;20020;-89
2021/10/30 03:10:51;;;;;;;36.47;17.10;;;;;;;6.13;99.03;97879.28;5083994;28;20016;-89
2021/10/30 03:13:17;;;;;;;33.55;15.90;;;;;;;6.19;99.29;97879.19;5083514;28;20019;-89
2021/10/30 03:15:42;;;;;;;31.88;16.45;;;;;;;6.27;98.45;97878.19;5066080;28;20047;-89
2021/10/30 03:18:08;;;;;;;31.42;15.95;;;;;;;6.32;98.38;97880.75;5066298;28;20017;-89
2021/10/30 03:20:34;;;;;;;29.55;15.15;;;;;;;6.31;98.59;97873.81;5061361;28;20023;-89
2021/10/30 03:22:59;;;;;;;32.55;16.25;;;;;;;6.30;98.27;97867.69;5066247;28;20020;-89
2021/10/30 03:25:26;;;;;;;34.00;17.42;;;;;;;6.38;98.60;97872.81;5059550;28;20016;-89
2021/10/30 03:27:52;;;;;;;33.80;17.45;;;;;;;6.37;98.40;97871.09;5077010;28;20111;-89
2021/10/30 03:30:17;;;;;;;36.33;16.63;;;;;;;6.23;97.35;97875.66;5065985;28;20215;-89
2021/10/30 03:32:43;;;;;;;32.47;16.35;;;;;;;6.28;98.06;97868.63;5065638;28;20373;-89
2021/10/30 03:35:09;;;;;;;24.85;14.48;;;;;;;6.22;97.45;97868.72;5066070;28;20054;-89
2021/10/30 03:37:35;;;;;;;27.50;14.15;;;;;;;6.14;97.25;97867.97;5083597;28;20346;-89
2021/10/30 03:40:03;;;;;;;29.52;17.30;;;;;;;6.18;98.31;97869.66;5064239;28;21110;-89
2021/10/30 03:42:30;;;;;;;29.92;15.93;;;;;;;6.25;98.84;97873.88;5076054;28;20024;-89
2021/10/30 03:44:56;;;;;;;31.85;16.33;;;;;;;6.31;99.43;97873.81;5063005;28;20099;-89
2021/10/30 03:47:22;;;;;;;31.73;16.67;;;;;;;6.38;99.18;97870.19;5065889;28;20024;-89
2021/10/30 03:49:47;;;;;;;30.67;15.60;;;;;;;6.39;98.58;97871.91;5065074;28;20016;-89
2021/10/30 03:52:13;;;;;;;29.98;15.45;;;;;;;6.52;98.80;97848.19;5065922;28;20059;-89
2021/10/30 03:54:38;;;;;;;28.35;15.85;;;;;;;6.52;98.64;97860.41;5065548;28;20039;-89
2021/10/30 03:57:04;;;;;;;26.50;14.88;;;;;;;6.50;98.62;97855.22;5065760;28;20016;-89
2021/10/30 03:59:30;;;;;;;26.05;14.75;;;;;;;6.52;98.75;97858.66;5035977;28;20021;-89
2021/10/30 04:01:56;;;;;;;27.50;14.45;;;;;;;6.65;98.80;97859.34;5080920;28;20025;-89
2021/10/30 04:04:21;;;;;;;32.92;15.40;;;;;;;6.82;98.50;97853.81;5064115;28;20020;-89
2021/10/30 04:06:46;;;;;;;29.17;14.57;;;;;;;6.80;98.27;97840.75;5065434;28;20232;-89
2021/10/30 04:09:12;;;;;;;29.40;15.70;;;;;;;6.89;98.26;97832.75;5064993;28;20216;-89
2021/10/30 04:11:38;;;;;;;26.33;14.95;;;;;;;6.98;98.39;97827.38;5065798;28;20020;-89
2021/10/30 04:14:03;;;;;;;31.00;15.00;;;;;;;7.04;98.39;97818.53;5049211;28;20024;-89
2021/10/30 04:16:29;;;;;;;31.40;15.90;;;;;;;7.22;98.87;97829.53;5065780;28;20109;-89
2021/10/30 04:18:57;;;;;;;25.80;14.55;;;;;;;7.37;98.46;97836.22;5048683;28;20024;-89
2021/10/30 04:21:23;;;;;;;27.35;14.60;;;;;;;7.45;97.92;97829.06;5065064;28;20019;-89
2021/10/30 04:23:48;;;;;;;26.13;14.65;;;;;;;7.31;97.36;97837.19;5058345;28;20304;-89
2021/10/30 04:26:13;;;;;;;28.67;15.60;;;;;;;7.53;98.23;97838.50;5058986;28;20300;-89
2021/10/30 04:28:39;;;;;;;25.05;13.57;;;;;;;7.58;97.59;97830.56;5035207;28;20107;-89
2021/10/30 04:31:07;;;;;;;24.48;14.60;;;;;;;7.58;97.32;97825.31;5051283;28;20024;-89
2021/10/30 04:33:32;;;;;;;26.50;14.95;;;;;;;7.39;97.32;97824.81;5063289;28;20044;-89
2021/10/30 04:35:58;;;;;;;29.30;14.40;;;;;;;7.42;97.65;97840.47;5052408;28;20028;-89
2021/10/30 04:38:23;;;;;;;26.67;13.13;;;;;;;7.54;97.38;97842.88;5069343;28;20039;-89
2021/10/30 04:40:49;;;;;;;26.85;14.23;;;;;;;7.56;97.30;97853.31;5058961;28;20020;-89
2021/10/30 04:43:14;;;;;;;24.65;13.82;;;;;;;7.59;98.04;97859.31;5068901;28;20047;-89
2021/10/30 04:45:41;;;;;;;25.65;13.95;;;;;;;7.58;97.30;97852.38;5049661;28;20130;-89
2021/10/30 04:48:07;;;;;;;27.17;13.95;;;;;;;7.57;97.93;97848.03;5068856;28;20070;-89
2021/10/30 04:50:33;;;;;;;27.60;15.00;;;;;;;7.60;97.30;97839.25;5059005;28;20036;-89
2021/10/30 04:52:58;;;;;;;30.23;14.93;;;;;;;7.69;97.44;97847.75;5052126;28;20029;-89
2021/10/30 04:55:24;;;;;;;24.92;13.52;;;;;;;7.76;96.65;97896.53;5068193;28;20058;-89
2021/10/30 04:57:49;;;;;;;22.35;12.85;;;;;;;7.62;96.83;97833.06;5068252;28;20020;-89
2021/10/30 05:00:15;;;;;;;29.05;14.43;;;;;;;7.73;97.70;97823.25;5067808;28;20092;-89
2021/10/30 05:02:41;;;;;;;27.13;14.13;;;;;;;7.88;97.78;97825.53;5058263;28;20016;-89
2021/10/30 05:05:07;;;;;;;26.42;14.93;;;;;;;7.96;97.89;97823.63;5063232;28;20025;-89
2021/10/30 05:07:34;;;;;;;26.35;14.32;;;;;;;8.04;97.46;97832.16;5050320;28;20053;-89
2021/10/30 05:10:00;;;;;;;24.20;13.55;;;;;;;8.17;97.30;97822.28;5045808;28;20119;-89
2021/10/30 05:12:25;;;;;;;27.88;14.63;;;;;;;8.30;96.76;97819.38;5068470;28;20278;-89
2021/10/30 05:14:51;;;;;;;27.27;13.98;;;;;;;8.40;96.33;97810.41;5068213;28;20096;-89
2021/10/30 05:17:16;;;;;;;21.27;12.02;;;;;;;8.36;96.01;97808.72;5034934;28;20100;-89
2021/10/30 05:19:42;;;;;;;26.20;13.85;;;;;;;8.35;96.23;97807.00;5067312;28;20012;-89
2021/10/30 05:22:07;;;;;;;28.77;14.60;;;;;;;8.37;95.71;97804.34;5051390;28;20219;-89
2021/10/30 05:24:32;;;;;;;34.47;16.10;;;;;;;8.23;95.92;97785.47;5048996;28;20075;-89
2021/10/30 05:26:58;;;;;;;31.30;15.30;;;;;;;8.22;96.70;97783.75;5053341;28;20053;-89
2021/10/30 05:29:23;;;;;;;26.38;13.80;;;;;;;8.30;96.38;97790.56;5077096;28;20027;-89
2021/10/30 05:31:49;;;;;;;30.05;13.95;;;;;;;8.43;96.01;97784.09;5067734;28;20028;-89
2021/10/30 05:34:14;;;;;;;27.80;13.10;;;;;;;8.46;95.69;97784.03;5061099;28;20024;-89
2021/10/30 05:36:40;;;;;;;29.17;13.48;;;;;;;8.51;95.86;97776.91;5068064;28;20016;-90
2021/10/30 05:39:12;;;;;;;23.98;12.52;;;;;;;8.58;95.57;97767.97;5067748;28;20092;-89
2021/10/30 05:41:37;;;;;;;29.20;12.07;;;;;;;8.62;94.88;97769.63;5064832;28;20271;-89
2021/10/30 05:44:03;;;;;;;23.60;12.88;;;;;;;8.55;95.38;97773.28;5066942;28;20016;-89
2021/10/30 05:46:29;;;;;;;24.85;13.07;;;;;;;8.56;95.94;97769.78;5062511;28;20316;-89
2021/10/30 05:48:56;;;;;;;28.92;13.13;;;;;;;8.47;95.79;97764.78;5082391;28;20126;-89
2021/10/30 05:51:21;;;;;;;22.58;12.05;;;;;;;8.55;95.31;97768.03;5074151;28;20095;-89
2021/10/30 05:53:47;;;;;;;33.42;13.63;;;;;;;8.38;95.92;97764.13;5065461;28;20028;-89
2021/10/30 05:56:12;;;;;;;27.63;13.80;;;;;;;8.45;95.86;97756.06;5042872;28;20027;-89
2021/10/30 05:58:38;;;;;;;25.25;12.65;;;;;;;8.43;95.69;97752.66;5067367;28;20087;-89
2021/10/30 06:01:04;;;;;;;25.17;13.70;;;;;;;8.42;96.22;97766.63;5067646;28;20051;-89
2021/10/30 06:03:29;;;;;;;27.40;13.90;;;;;;;8.39;96.34;97765.88;5071086;28;20017;-89
2021/10/30 06:05:54;;;;;;;28.42;13.02;;;;;;;8.37;96.43;97771.16;5063508;28;20032;-88
2021/10/30 06:08:22;;;;;;;26.40;12.30;;;;;;;8.36;96.51;97779.88;5068489;28;20320;-89
2021/10/30 06:10:47;;;;;;;22.95;11.95;;;;;;;8.42;96.36;97777.13;5050942;28;20028;-89
2021/10/30 06:13:13;;;;;;;25.02;12.52;;;;;;;8.48;96.32;97782.22;5066773;28;20024;-88
2021/10/30 06:15:38;;;;;;;23.13;12.77;;;;;;;8.59;95.51;97795.94;5067285;28;20016;-88
2021/10/30 06:18:04;;;;;;;26.88;12.35;;;;;;;8.68;94.93;97795.69;5066911;28;20020;-89
2021/10/30 06:20:29;;;;;;;22.73;11.98;;;;;;;8.61;95.36;97783.63;5048710;28;20016;-88
2021/10/30 06:22:55;;;;;;;22.63;13.13;;;;;;;8.57;96.35;97782.00;5052501;28;20016;-89
2021/10/30 06:25:20;;;;;;;23.58;12.10;;;;;;;8.59;95.65;97768.84;5064981;28;20020;-88
2021/10/30 06:27:46;;;;;;;24.55;13.02;;;;;;;8.53;95.46;97780.34;5048216;28;20020;-89
2021/10/30 06:30:12;;;;;;;22.42;12.25;;;;;;;8.59;95.48;97780.22;5057715;28;20023;-88
2021/10/30 06:32:38;;;;;;;21.73;13.23;;;;;;;8.62;95.61;97790.63;5050179;28;20396;-88
2021/10/30 06:35:08;;;;;;;30.40;14.50;;;;;;;8.59;95.36;97785.44;5066808;28;20016;-89
2021/10/30 06:37:34;;;;;;;25.15;14.13;;;;;;;8.58;95.48;97791.56;5073949;28;20095;-89
2021/10/30 06:40:00;;;;;;;29.60;15.88;;;;;;;8.57;95.62;97795.09;5076092;28;20036;-88
2021/10/30 06:42:25;;;;;;;32.20;17.50;;;;;;;8.47;96.11;97801.47;5066464;28;20028;-90
2021/10/30 06:44:51;;;;;;;29.70;17.73;;;;;;;8.50;96.83;97801.41;5064086;28;20044;-90
2021/10/30 06:47:17;;;;;;;25.88;14.98;;;;;;;8.54;96.81;97818.78;5052020;28;20044;-89
2021/10/30 06:49:42;;;;;;;24.88;13.23;;;;;;;8.61;96.71;97820.34;5060932;28;20012;-89
2021/10/30 06:52:09;;;;;;;26.77;14.95;;;;;;;8.58;97.03;97817.81;5050224;28;20331;-90
2021/10/30 06:54:35;;;;;;;26.48;14.82;;;;;;;8.49;96.88;97804.91;5081109;28;20217;-89
2021/10/30 06:57:00;;;;;;;29.45;14.40;;;;;;;8.54;96.64;97800.44;5065039;28;20020;-89
2021/10/30 06:59:27;;;;;;;29.13;14.57;;;;;;;8.68;96.16;97806.19;5051371;28;20020;-89
2021/10/30 07:01:53;;;;;;;29.85;15.43;;;;;;;8.71;95.99;97795.59;5068356;28;20249;-89
2021/10/30 07:04:18;;;;;;;33.88;16.05;;;;;;;8.70;95.99;97793.91;5066308;28;20016;-89
2021/10/30 07:06:44;;;;;;;30.10;16.85;;;;;;;8.72;96.16;97797.34;5064293;28;20241;-90
2021/10/30 07:09:09;;;;;;;23.15;11.63;;;;;;;8.81;95.73;97804.13;5044728;28;20025;-89
2021/10/30 07:11:35;;;;;;;24.13;12.48;;;;;;;8.96;95.67;97826.50;5061693;28;20078;-88
2021/10/30 07:14:01;;;;;;;25.02;14.50;;;;;;;9.10;96.08;97819.09;5064383;28;20093;-89
2021/10/30 07:16:26;;;;;;;29.48;14.57;;;;;;;9.18;96.25;97853.91;5056074;28;20113;-90
2021/10/30 07:18:52;;;;;;;31.33;14.65;;;;;;;9.25;95.40;97829.19;5048777;28;20095;-89
2021/10/30 07:21:18;;;;;;;26.92;13.32;;;;;;;9.29;95.50;97836.09;5070566;28;20308;-88
2021/10/30 07:23:43;;;;;;;29.25;14.35;;;;;;;9.35;96.36;97821.03;5045233;28;20028;-88
2021/10/30 07:26:09;;;;;;;24.75;13.07;;;;;;;9.43;94.31;97812.97;5056482;28;20324;-87
2021/10/30 07:28:34;;;;;;;26.90;14.02;;;;;;;9.55;94.25;97818.72;5060434;28;20028;-88
2021/10/30 07:31:00;;;;;;;23.77;13.50;;;;;;;9.61;94.00;97807.16;5065147;28;20012;-88
2021/10/30 07:33:25;;;;;;;26.10;13.15;;;;;;;9.62;93.54;97803.66;5064719;28;20016;-88
2021/10/30 07:35:51;;;;;;;28.90;14.43;;;;;;;9.58;93.46;97804.63;5064876;28;20083;-88
2021/10/30 07:38:16;;;;;;;25.63;14.00;;;;;;;9.49;93.81;97812.78;5049503;28;20024;-87
2021/10/30 07:40:42;;;;;;;31.08;14.25;;;;;;;9.44;93.56;97812.91;5059420;28;20024;-88
2021/10/30 07:43:07;;;;;;;22.98;13.10;;;;;;;9.44;93.45;97806.78;5065355;28;20027;-88
2021/10/30 07:45:34;;;;;;;25.60;13.27;;;;;;;9.53;93.13;97809.16;5062884;28;20223;-88
2021/10/30 07:48:00;;;;;;;24.65;13.13;;;;;;;9.51;93.65;97797.81;5066643;28;20020;-88
2021/10/30 07:50:28;;;;;;;29.35;15.40;;;;;;;9.50;94.51;97818.00;5073483;28;20049;-88
2021/10/30 07:52:53;;;;;;;28.60;14.88;;;;;;;9.44;94.94;97838.31;5064923;28;20025;-88
2021/10/30 07:55:18;;;;;;;27.40;13.98;;;;;;;9.50;94.98;97835.50;5057237;28;20016;-88
2021/10/30 07:57:44;;;;;;;21.80;13.50;;;;;;;9.46;95.94;97807.63;5050093;28;20055;-88
2021/10/30 08:00:10;;;;;;;41.33;19.17;;;;;;;9.42;95.72;97826.97;5082216;28;20021;-87
2021/10/30 08:02:38;;;;;;;31.75;15.45;;;;;;;9.52;97.22;97857.34;5067658;28;20312;-88
2021/10/30 08:05:04;;;;;;;26.67;14.30;;;;;;;9.46;97.20;97828.63;5066355;28;20044;-88
2021/10/30 08:07:30;;;;;;;23.75;13.45;;;;;;;9.47;97.93;97854.84;5068065;28;20473;-88
2021/10/30 08:09:55;;;;;;;26.75;13.65;;;;;;;9.51;97.15;97842.47;5074243;28;20055;-88
2021/10/30 08:12:22;;;;;;;24.83;13.35;;;;;;;9.54;97.05;97831.88;5072713;28;20097;-88
2021/10/30 08:14:47;;;;;;;27.63;14.75;;;;;;;9.52;97.57;97844.22;5060532;28;20330;-88
2021/10/30 08:17:12;;;;;;;33.13;16.88;;;;;;;9.50;97.76;97841.63;5056286;28;20040;-87
2021/10/30 08:19:38;;;;;;;35.22;18.88;;;;;;;9.57;97.04;97837.06;5051349;28;20025;-87
2021/10/30 08:22:04;;;;;;;32.78;18.73;;;;;;;9.55;97.07;97828.38;5064760;28;20372;-88
2021/10/30 08:24:30;;;;;;;29.15;16.95;;;;;;;9.54;97.57;97816.13;5072604;28;20021;-90
2021/10/30 08:26:56;;;;;;;36.78;16.55;;;;;;;9.49;98.24;97818.03;5079728;28;20102;-91
2021/10/30 08:29:21;;;;;;;38.20;17.60;;;;;;;9.44;98.38;97825.16;5080574;28;20044;-90
2021/10/30 08:31:48;;;;;;;41.22;18.92;;;;;;;9.40;99.86;97828.78;5065960;28;20255;-90
2021/10/30 08:34:13;;;;;;;42.42;20.70;;;;;;;9.34;99.77;97842.09;5063914;28;20016;-89
2021/10/30 08:36:39;;;;;;;38.63;21.52;;;;;;;9.32;100.00;97823.75;5069796;28;20013;-90
2021/10/30 08:39:05;;;;;;;33.22;17.48;;;;;;;9.30;100.00;97812.41;5073622;28;20035;-90
2021/10/30 08:41:31;;;;;;;30.98;17.25;;;;;;;9.22;100.00;97818.78;5068932;28;20066;-90
2021/10/30 08:43:57;;;;;;;29.15;15.27;;;;;;;9.27;100.00;97811.66;5071956;28;20252;-90
2021/10/30 08:46:23;;;;;;;31.85;16.40;;;;;;;9.27;100.00;97801.16;5063008;28;20067;-90
2021/10/30 08:48:51;;;;;;;33.60;16.92;;;;;;;9.18;100.00;97797.03;5059485;28;20078;-91
2021/10/30 08:51:16;;;;;;;31.42;15.65;;;;;;;9.23;100.00;97794.25;5081833;28;20020;-91
2021/10/30 08:53:42;;;;;;;32.33;15.43;;;;;;;9.24;100.00;97793.34;5074058;28;20007;-91
2021/10/30 08:56:08;;;;;;;32.35;16.40;;;;;;;9.24;100.00;97795.97;5085397;28;20052;-91
2021/10/30 08:58:34;;;;;;;31.92;16.75;;;;;;;9.28;100.00;97789.72;5070453;28;20220;-90
2021/10/30 09:01:04;;;;;;;28.58;15.30;;;;;;;9.33;100.00;97798.38;5069587;28;20023;-91
2021/10/30 09:03:30;;;;;;;35.50;17.92;;;;;;;9.46;100.00;97799.75;5062818;28;20036;-90
2021/10/30 09:05:59;;;;;;;57.00;24.50;;;;;;;9.40;100.00;97786.78;5082566;28;20071;-90
2021/10/30 09:08:26;;;;;;;42.95;21.90;;;;;;;9.39;100.00;97783.28;5068051;28;20110;-91
2021/10/30 09:10:58;;;;;;;35.70;19.00;;;;;;;9.45;100.00;97784.88;5068176;28;20016;-90
2021/10/30 09:13:28;;;;;;;32.10;18.13;;;;;;;9.49;100.00;97781.28;5069843;28;20017;-91
2021/10/30 09:15:55;;;;;;;40.88;20.27;;;;;;;9.54;100.00;97780.22;5072225;28;20043;-91
2021/10/30 09:18:31;;;;;;;37.28;20.65;;;;;;;9.57;100.00;97789.78;5082741;28;20012;-91
2021/10/30 09:20:57;;;;;;;35.53;19.38;;;;;;;9.59;100.00;97796.69;5079412;28;20277;-91
2021/10/30 09:23:28;;;;;;;35.55;19.75;;;;;;;9.61;100.00;97796.66;5059143;28;20021;-91
2021/10/30 09:26:02;;;;;;;45.70;20.60;;;;;;;9.64;100.00;97801.81;5068452;28;20021;-90
2021/10/30 09:28:33;;;;;;;47.50;25.90;;;;;;;9.71;100.00;97798.97;5067719;28;20254;-90
2021/10/30 09:31:05;;;;;;;58.28;30.23;;;;;;;9.74;99.95;97795.38;5058391;28;20124;-90
2021/10/30 09:33:33;;;;;;;47.90;27.35;;;;;;;9.82;99.92;97785.53;5066465;28;20095;-91
2021/10/30 09:36:09;;;;;;;57.05;32.42;;;;;;;9.79;99.66;97786.50;5067567;28;20027;-89
2021/10/30 09:38:47;;;;;;;55.42;31.20;;;;;;;9.80;100.00;97792.59;5063941;28;20095;-90
2021/10/30 09:41:43;;;;;;;57.28;33.30;;;;;;;9.81;100.00;97800.41;5074048;28;20017;-90
2021/10/30 09:44:23;;;;;;;83.82;50.20;;;;;;;9.85;100.00;97794.19;5054451;28;21525;-90
2021/10/30 09:47:08;;;;;;;83.32;41.88;;;;;;;9.87;100.00;97800.25;5073478;28;20032;-92
2021/10/30 09:49:37;;;;;;;74.68;40.45;;;;;;;9.83;100.00;97813.50;5065146;28;20020;-91
2021/10/30 09:52:05;;;;;;;86.35;50.65;;;;;;;9.91;100.00;97795.78;5066922;28;20012;-90
2021/10/30 09:54:38;;;;;;;82.82;50.00;;;;;;;9.89;100.00;97814.22;5066487;28;20029;-91
2021/10/30 09:57:07;;;;;;;67.85;41.30;;;;;;;9.90;100.00;97799.31;5069195;28;20050;-91
2021/10/30 09:59:39;;;;;;;66.10;36.30;;;;;;;9.91;100.00;97790.50;5072206;28;20207;-91
2021/10/30 10:02:05;;;;;;;67.90;39.60;;;;;;;9.95;100.00;97802.66;5063757;28;20025;-90
2021/10/30 10:04:31;;;;;;;86.45;50.28;;;;;;;9.96;100.00;97799.09;5066643;28;20219;-91
2021/10/30 10:07:00;;;;;;;68.03;35.72;;;;;;;9.95;100.00;97802.66;5096252;28;20048;-89
2021/10/30 10:09:26;;;;;;;45.97;26.27;;;;;;;9.94;100.00;97798.31;5074164;28;20048;-89
2021/10/30 10:11:52;;;;;;;47.85;28.55;;;;;;;10.01;100.00;97807.72;5074535;28;20020;-89
2021/10/30 10:14:20;;;;;;;36.90;20.05;;;;;;;10.01;100.00;97802.47;5076115;28;20024;-89
2021/10/30 10:16:54;;;;;;;40.25;23.00;;;;;;;10.05;100.00;97794.44;5075170;28;20303;-89
2021/10/30 10:19:21;;;;;;;37.92;21.63;;;;;;;10.01;100.00;97787.56;5075955;28;20027;-89
2021/10/30 10:21:52;;;;;;;35.72;18.45;;;;;;;10.04;100.00;97783.97;5076685;28;20339;-89
2021/10/30 10:24:20;;;;;;;34.33;20.17;;;;;;;9.97;100.00;97779.81;5095746;28;20023;-89
2021/10/30 10:26:47;;;;;;;36.50;19.42;;;;;;;10.06;100.00;97776.91;5083230;28;20027;-89
2021/10/30 10:29:15;;;;;;;28.85;18.27;;;;;;;10.09;100.00;97782.06;5074903;28;20016;-89
2021/10/30 10:31:48;;;;;;;30.52;17.40;;;;;;;10.16;100.00;97775.75;5071153;28;20347;-91
2021/10/30 10:34:17;;;;;;;28.40;16.15;;;;;;;10.17;100.00;97769.56;5079613;28;20021;-90
2021/10/30 10:36:45;;;;;;;28.55;16.38;;;;;;;10.17;100.00;97756.44;5085039;28;20012;-91
2021/10/30 10:39:13;;;;;;;37.13;18.50;;;;;;;10.18;100.00;97764.25;5074789;28;20055;-89
2021/10/30 10:41:44;;;;;;;40.15;20.38;;;;;;;10.14;100.00;97767.91;5077620;28;20016;-89
2021/10/30 10:44:22;;;;;;;28.80;16.70;;;;;;;10.15;99.92;97789.78;5065915;28;20024;-89
2021/10/30 10:46:50;;;;;;;29.50;15.70;;;;;;;10.26;100.00;97792.97;5068354;28;20280;-90
2021/10/30 10:49:30;;;;;;;25.95;13.90;;;;;;;10.27;99.86;97784.16;5089446;28;20144;-90
2021/10/30 10:54:54;;;;;;;27.88;14.95;;;;;;;10.33;100.00;97782.19;5095071;28;20030;-90
2021/10/30 10:57:27;;;;;;;24.98;14.52;;;;;;;10.32;100.00;97782.25;5079853;28;20012;-90
2021/10/30 11:00:16;;;;;;;27.02;13.82;;;;;;;10.35;100.00;97793.50;5094823;28;20020;-90
2021/10/30 11:02:53;;;;;;;22.92;12.55;;;;;;;10.19;99.21;97794.06;5088134;28;20322;-90
2021/10/30 11:05:22;;;;;;;25.27;14.00;;;;;;;10.18;99.36;97784.44;5061737;28;20040;-90
2021/10/30 11:07:50;;;;;;;23.08;14.15;;;;;;;10.13;98.94;97791.63;5079503;28;20020;-89
2021/10/30 11:10:23;;;;;;;38.80;18.40;;;;;;;9.99;99.62;97786.75;5076449;28;20219;-90
2021/10/30 11:13:05;;;;;;;32.85;17.17;;;;;;;9.86;99.87;97795.03;5072191;28;20022;-88
2021/10/30 11:15:49;;;;;;;30.92;16.77;;;;;;;9.71;100.00;97788.47;5077874;28;20326;-89
2021/10/30 11:21:18;;;;;;;31.45;16.30;;;;;;;9.75;100.00;97789.25;5099070;28;20020;-89
2021/10/30 11:23:52;;;;;;;27.98;15.70;;;;;;;9.80;100.00;97792.59;5082532;28;20016;-89
2021/10/30 11:26:27;;;;;;;34.17;18.52;;;;;;;9.88;100.00;97783.59;5069693;28;20021;-88